createdAt,value
2023-04-22T00:00:19.900Z,2.30
2023-04-22T00:02:47.273Z,1.80
2023-04-22T00:05:16.643Z,1.93
2023-04-22T00:07:45.650Z,2.10
2023-04-22T00:10:12.857Z,1.97
2023-04-22T00:12:40.307Z,2.20
2023-04-22T00:15:07.753Z,1.80
2023-04-22T00:17:35.033Z,1.97
2023-04-22T00:20:02.171Z,1.90
2023-04-22T00:22:29.296Z,2.20
2023-04-22T00:24:56.606Z,2.10
2023-04-22T00:27:23.786Z,2.20
2023-04-22T00:29:50.952Z,2.13
2023-04-22T00:32:18.139Z,1.90
2023-04-22T00:34:45.310Z,1.90
2023-04-22T00:37:12.445Z,1.80
2023-04-22T00:39:40.078Z,2.20
2023-04-22T00:42:07.959Z,2.10
2023-04-22T00:44:36.597Z,2.47
2023-04-22T00:47:04.414Z,2.33
2023-04-22T00:49:32.049Z,2.33
2023-04-22T00:51:59.168Z,1.90
2023-04-22T00:54:26.363Z,1.77
2023-04-22T00:56:53.537Z,1.70
2023-04-22T00:59:21.274Z,1.90
2023-04-22T01:01:48.524Z,1.80
2023-04-22T01:04:16.221Z,1.60
2023-04-22T01:06:44.386Z,1.90
2023-04-22T01:09:11.613Z,1.73
2023-04-22T01:11:38.950Z,2.80
2023-04-22T01:14:06.202Z,2.20
2023-04-22T01:16:35.872Z,2.00
2023-04-22T01:19:03.158Z,1.77
2023-04-22T01:21:33.524Z,1.60
2023-04-22T01:24:01.684Z,1.93
2023-04-22T01:26:29.255Z,1.70
2023-04-22T01:28:56.652Z,1.90
2023-04-22T01:31:24.039Z,1.80
2023-04-22T01:33:51.354Z,1.87
2023-04-22T01:36:18.689Z,1.80
2023-04-22T01:38:45.993Z,1.70
2023-04-22T01:41:14.334Z,1.90
2023-04-22T01:43:42.182Z,2.00
2023-04-22T01:46:09.843Z,2.30
2023-04-22T01:48:37.249Z,2.40
2023-04-22T01:51:04.676Z,2.43
2023-04-22T01:53:31.896Z,2.40
2023-04-22T01:55:59.270Z,2.30
2023-04-22T01:58:29.686Z,2.80
2023-04-22T02:00:57.070Z,2.50
2023-04-22T02:03:24.358Z,2.43
2023-04-22T02:05:51.656Z,2.60
2023-04-22T02:08:18.794Z,2.63
2023-04-22T02:10:45.980Z,2.63
2023-04-22T02:13:13.139Z,2.70
2023-04-22T02:15:41.317Z,2.47
2023-04-22T02:18:10.182Z,2.70
2023-04-22T02:20:37.610Z,2.80
2023-04-22T02:23:05.366Z,2.87
2023-04-22T02:25:32.532Z,2.50
2023-04-22T02:27:59.699Z,2.07
2023-04-22T02:30:26.983Z,2.00
2023-04-22T02:32:54.189Z,2.00
2023-04-22T02:35:21.440Z,2.00
2023-04-22T02:37:48.573Z,2.00
2023-04-22T02:40:15.719Z,2.00
2023-04-22T02:42:42.847Z,2.00
2023-04-22T02:45:10.266Z,1.90
2023-04-22T02:47:37.424Z,2.10
2023-04-22T02:50:04.718Z,2.20
2023-04-22T02:52:31.902Z,2.40
2023-04-22T02:54:59.074Z,2.40
2023-04-22T02:57:26.456Z,2.50
2023-04-22T02:59:54.132Z,2.60
2023-04-22T03:02:21.336Z,2.80
2023-04-22T03:04:48.557Z,2.60
2023-04-22T03:07:15.688Z,2.80
2023-04-22T03:09:42.844Z,2.70
2023-04-22T03:12:10.522Z,2.70
2023-04-22T03:14:37.662Z,3.10
2023-04-22T03:17:04.770Z,2.63
2023-04-22T03:19:31.898Z,2.93
2023-04-22T03:21:59.345Z,2.93
2023-04-22T03:24:26.480Z,2.83
2023-04-22T03:26:53.625Z,2.70
2023-04-22T03:29:20.788Z,2.60
2023-04-22T03:31:48.092Z,2.70
2023-04-22T03:34:15.418Z,2.70
2023-04-22T03:36:42.603Z,2.83
2023-04-22T03:39:09.878Z,2.60
2023-04-22T03:41:37.013Z,2.60
2023-04-22T03:44:04.141Z,2.70
2023-04-22T03:46:32.066Z,2.50
2023-04-22T03:48:59.369Z,2.90
2023-04-22T03:51:26.506Z,2.83
2023-04-22T03:53:53.622Z,3.10
2023-04-22T03:56:21.184Z,2.90
2023-04-22T03:58:48.322Z,2.97
2023-04-22T04:01:15.525Z,2.97
2023-04-22T04:03:42.861Z,2.90
2023-04-22T04:06:10.218Z,3.00
2023-04-22T04:08:37.387Z,3.50
2023-04-22T04:11:05.265Z,3.30
2023-04-22T04:13:32.600Z,2.97
2023-04-22T04:16:01.067Z,3.40
2023-04-22T04:18:29.636Z,3.27
2023-04-22T04:20:56.815Z,3.63
2023-04-22T04:23:23.926Z,3.30
2023-04-22T04:25:51.897Z,3.50
2023-04-22T04:28:20.012Z,3.33
2023-04-22T04:30:47.189Z,3.20
2023-04-22T04:33:16.700Z,3.30
2023-04-22T04:35:44.755Z,3.40
2023-04-22T04:38:12.774Z,3.47
2023-04-22T04:40:39.912Z,3.40
2023-04-22T04:43:08.433Z,3.40
2023-04-22T04:45:39.306Z,3.20
2023-04-22T04:48:10.079Z,3.60
2023-04-22T04:50:37.375Z,3.40
2023-04-22T04:53:04.554Z,3.73
2023-04-22T04:55:31.673Z,3.80
2023-04-22T04:57:58.828Z,3.23
2023-04-22T05:00:26.018Z,3.60
2023-04-22T05:02:53.281Z,3.27
2023-04-22T05:05:20.540Z,3.67
2023-04-22T05:07:47.695Z,3.73
2023-04-22T05:10:14.865Z,3.50
2023-04-22T05:12:42.054Z,3.57
2023-04-22T05:15:09.328Z,3.70
2023-04-22T05:17:36.529Z,4.40
2023-04-22T05:20:04.470Z,3.73
2023-04-22T05:22:31.597Z,3.87
2023-04-22T05:24:58.721Z,4.23
2023-04-22T05:27:25.960Z,4.13
2023-04-22T05:29:53.157Z,3.90
2023-04-22T05:32:20.312Z,4.00
2023-04-22T05:34:47.564Z,4.03
2023-04-22T05:37:14.684Z,4.40
2023-04-22T05:39:42.010Z,4.40
2023-04-22T05:42:09.354Z,4.37
2023-04-22T05:44:36.503Z,4.43
2023-04-22T05:47:03.772Z,4.20
2023-04-22T05:49:30.928Z,4.40
2023-04-22T05:51:58.116Z,4.17
2023-04-22T05:54:25.602Z,3.77
2023-04-22T05:56:52.760Z,4.17
2023-04-22T05:59:21.682Z,4.10
2023-04-22T06:01:49.357Z,3.97
2023-04-22T06:04:16.851Z,3.90
2023-04-22T06:06:44.212Z,3.90
2023-04-22T06:09:11.364Z,3.87
2023-04-22T06:11:38.587Z,3.70
2023-04-22T06:14:05.746Z,3.80
2023-04-22T06:16:33.004Z,3.43
2023-04-22T06:19:00.137Z,3.30
2023-04-22T06:21:28.584Z,3.70
2023-04-22T06:23:56.260Z,3.67
2023-04-22T06:26:23.534Z,3.43
2023-04-22T06:28:50.713Z,3.57
2023-04-22T06:31:18.890Z,4.10
2023-04-22T06:33:47.594Z,3.40
2023-04-22T06:36:15.293Z,3.40
2023-04-22T06:38:42.410Z,3.50
2023-04-22T06:41:09.577Z,3.10
2023-04-22T06:43:36.707Z,3.10
2023-04-22T06:46:03.875Z,3.50
2023-04-22T06:48:31.029Z,3.00
2023-04-22T06:50:58.256Z,3.17
2023-04-22T06:53:25.525Z,3.57
2023-04-22T06:55:54.502Z,3.10
2023-04-22T06:58:22.312Z,3.17
2023-04-22T07:00:49.432Z,3.00
2023-04-22T07:03:16.678Z,2.97
2023-04-22T07:05:43.923Z,3.07
2023-04-22T07:08:11.830Z,3.37
2023-04-22T07:10:38.972Z,3.00
2023-04-22T07:13:06.133Z,2.97
2023-04-22T07:15:33.289Z,3.03
2023-04-22T07:18:00.587Z,3.10
2023-04-22T07:20:27.792Z,2.80
2023-04-22T07:22:54.957Z,2.70
2023-04-22T07:25:22.117Z,3.07
2023-04-22T07:27:49.260Z,2.73
2023-04-22T07:30:16.497Z,2.67
2023-04-22T07:32:43.659Z,2.93
2023-04-22T07:35:10.973Z,2.97
2023-04-22T07:37:38.118Z,2.63
2023-04-22T07:40:05.927Z,2.70
2023-04-22T07:42:33.073Z,2.50
2023-04-22T07:45:00.254Z,2.47
2023-04-22T07:47:27.484Z,2.50
2023-04-22T07:49:54.633Z,2.53
2023-04-22T07:52:21.784Z,2.50
2023-04-22T07:54:48.999Z,2.63
2023-04-22T07:57:16.215Z,2.40
2023-04-22T07:59:43.382Z,2.50
2023-04-22T08:02:10.798Z,2.40
2023-04-22T08:04:38.274Z,2.50
2023-04-22T08:07:17.079Z,2.60
2023-04-22T08:09:53.052Z,2.40
2023-04-22T08:12:20.278Z,2.20
2023-04-22T08:14:47.714Z,2.60
2023-04-22T08:17:14.850Z,2.30
2023-04-22T08:19:42.087Z,2.50
2023-04-22T08:22:09.308Z,2.50
2023-04-22T08:24:36.467Z,2.20
2023-04-22T08:27:03.704Z,2.50
2023-04-22T08:29:30.998Z,2.40
2023-04-22T08:31:58.183Z,2.10
2023-04-22T08:34:26.185Z,2.13
2023-04-22T08:36:53.326Z,2.10
2023-04-22T08:39:20.549Z,2.40
2023-04-22T08:41:47.751Z,2.20
2023-04-22T08:44:15.353Z,2.43
2023-04-22T08:46:46.968Z,2.40
2023-04-22T08:49:17.349Z,2.30
2023-04-22T08:51:46.066Z,2.23
2023-04-22T08:54:13.489Z,2.20
2023-04-22T08:56:42.567Z,2.20
2023-04-22T08:59:11.433Z,2.23
2023-04-22T09:01:42.688Z,2.20
2023-04-22T09:04:15.393Z,2.13
2023-04-22T09:06:42.624Z,2.20
2023-04-22T09:09:10.013Z,2.37
2023-04-22T09:11:37.592Z,2.10
2023-04-22T09:14:05.893Z,2.40
2023-04-22T09:16:33.400Z,2.50
2023-04-22T09:19:01.264Z,2.67
2023-04-22T09:21:28.777Z,2.70
2023-04-22T09:23:56.964Z,2.70
2023-04-22T09:26:25.181Z,2.80
2023-04-22T09:28:58.325Z,2.80
2023-04-22T09:31:26.092Z,2.77
2023-04-22T09:33:55.319Z,2.40
2023-04-22T09:36:37.281Z,2.73
2023-04-22T09:39:05.613Z,2.73
2023-04-22T09:41:36.633Z,2.60
2023-04-22T09:44:04.417Z,3.00
2023-04-22T09:46:32.010Z,2.90
2023-04-22T09:49:00.475Z,2.70
2023-04-22T09:51:28.044Z,3.00
2023-04-22T09:53:59.286Z,2.80
2023-04-22T09:56:42.652Z,3.27
2023-04-22T09:59:09.969Z,2.92
2023-04-22T10:01:41.337Z,2.80
2023-04-22T10:04:14.779Z,2.90
2023-04-22T10:06:42.590Z,3.30
2023-04-22T10:09:10.069Z,3.13
2023-04-22T10:11:37.684Z,3.25
2023-04-22T10:14:05.431Z,3.05
2023-04-22T10:16:34.641Z,2.80
2023-04-22T10:19:03.828Z,2.88
2023-04-22T10:21:31.462Z,3.17
2023-04-22T10:24:01.758Z,2.83
2023-04-22T10:26:44.003Z,2.85
2023-04-22T10:29:17.061Z,2.90
2023-04-22T10:31:45.260Z,2.70
2023-04-22T10:34:13.605Z,2.80
2023-04-22T10:36:54.002Z,2.92
2023-04-22T10:39:22.389Z,3.15
2023-04-22T10:41:57.724Z,3.13
2023-04-22T10:44:28.543Z,3.50
2023-04-22T10:46:59.381Z,3.30
2023-04-22T10:49:27.477Z,2.97
2023-04-22T10:51:55.502Z,3.08
2023-04-22T10:54:31.971Z,3.10
2023-04-22T10:57:03.546Z,3.22
2023-04-22T10:59:31.146Z,3.30
2023-04-22T11:02:02.520Z,3.25
2023-04-22T11:04:30.174Z,3.15
2023-04-22T11:07:20.742Z,3.20
2023-04-22T11:09:50.536Z,3.33
2023-04-22T11:12:36.008Z,3.22
2023-04-22T11:15:09.734Z,3.33
2023-04-22T11:17:41.126Z,3.20
2023-04-22T11:20:08.665Z,3.50
2023-04-22T11:22:36.535Z,3.00
2023-04-22T11:25:05.032Z,3.17
2023-04-22T11:27:32.441Z,3.20
2023-04-22T11:30:10.665Z,3.30
2023-04-22T11:32:38.552Z,3.33
2023-04-22T11:35:07.290Z,3.30
2023-04-22T11:37:44.973Z,2.95
2023-04-22T11:40:29.248Z,3.50
2023-04-22T11:42:59.122Z,3.10
2023-04-22T11:45:26.794Z,2.88
2023-04-22T11:47:54.353Z,3.35
2023-04-22T11:50:22.972Z,3.08
2023-04-22T11:53:13.364Z,3.15
2023-04-22T11:55:41.162Z,2.88
2023-04-22T11:58:12.994Z,2.80
2023-04-22T12:00:47.102Z,3.20
2023-04-22T12:03:16.067Z,3.53
2023-04-22T12:05:44.451Z,3.10
2023-04-22T12:08:11.655Z,3.38
2023-04-22T12:10:42.413Z,3.50
2023-04-22T12:13:09.793Z,3.25
2023-04-22T12:15:41.137Z,2.97
2023-04-22T12:18:08.355Z,2.90
2023-04-22T12:20:36.193Z,3.20
2023-04-22T12:23:04.386Z,3.40
2023-04-22T12:25:33.922Z,3.40
2023-04-22T12:28:01.324Z,3.22
2023-04-22T12:30:28.590Z,3.35
2023-04-22T12:32:55.806Z,3.40
2023-04-22T12:35:22.988Z,3.55
2023-04-22T12:37:50.698Z,3.70
2023-04-22T12:40:19.064Z,3.40
2023-04-22T12:42:46.238Z,3.30
2023-04-22T12:45:13.398Z,3.30
2023-04-22T12:47:40.719Z,3.15
2023-04-22T12:50:08.211Z,3.30
2023-04-22T12:52:35.772Z,3.90
2023-04-22T12:55:03.002Z,3.45
2023-04-22T12:57:30.306Z,4.03
2023-04-22T12:59:58.447Z,4.00
2023-04-22T13:02:25.883Z,3.40
2023-04-22T13:04:53.129Z,3.45
2023-04-22T13:07:20.364Z,3.20
2023-04-22T13:09:47.657Z,3.15
2023-04-22T13:12:14.848Z,3.08
2023-04-22T13:14:42.677Z,3.10
2023-04-22T13:17:09.891Z,3.33
2023-04-22T13:19:37.088Z,3.50
2023-04-22T13:22:04.413Z,3.38
2023-04-22T13:24:31.778Z,3.33
2023-04-22T13:26:59.012Z,3.40
2023-04-22T13:29:27.060Z,3.55
2023-04-22T13:31:54.316Z,3.25
2023-04-22T13:34:21.527Z,3.38
2023-04-22T13:36:48.787Z,3.83
2023-04-22T13:39:16.066Z,3.42
2023-04-22T13:41:43.247Z,3.45
2023-04-22T13:44:11.762Z,3.25
2023-04-22T13:46:39.535Z,3.60
2023-04-22T13:49:06.733Z,3.65
2023-04-22T13:51:34.012Z,3.40
2023-04-22T13:54:01.765Z,3.72
2023-04-22T13:56:28.960Z,3.67
2023-04-22T13:58:58.071Z,3.75
2023-04-22T14:01:25.874Z,3.78
2023-04-22T14:03:53.673Z,3.90
2023-04-22T14:06:21.054Z,4.30
2023-04-22T14:08:48.281Z,4.10
2023-04-22T14:11:15.525Z,3.95
2023-04-22T14:13:42.740Z,4.00
2023-04-22T14:16:11.811Z,4.20
2023-04-22T14:18:40.248Z,3.90
2023-04-22T14:21:11.413Z,4.18
2023-04-22T14:23:39.729Z,4.00
2023-04-22T14:26:07.430Z,4.20
2023-04-22T14:28:34.938Z,4.18
2023-04-22T14:31:02.118Z,3.60
2023-04-22T14:33:29.580Z,3.97
2023-04-22T14:35:57.248Z,3.67
2023-04-22T14:38:24.501Z,4.03
2023-04-22T14:40:51.802Z,4.05
2023-04-22T14:43:19.512Z,4.13
2023-04-22T14:45:47.662Z,3.60
2023-04-22T14:48:14.784Z,3.80
2023-04-22T14:50:42.885Z,3.55
2023-04-22T14:53:10.077Z,3.53
2023-04-22T14:55:37.207Z,3.83
2023-04-22T14:58:04.421Z,3.80
2023-04-22T15:00:31.604Z,3.70
2023-04-22T15:02:58.861Z,3.90
2023-04-22T15:05:26.187Z,4.10
2023-04-22T15:07:53.399Z,3.90
2023-04-22T15:10:20.614Z,4.47
2023-04-22T15:12:47.774Z,4.20
2023-04-22T15:15:16.164Z,4.40
2023-04-22T15:17:43.880Z,4.20
2023-04-22T15:20:11.877Z,4.27
2023-04-22T15:22:41.167Z,4.30
2023-04-22T15:25:09.697Z,4.07
2023-04-22T15:27:37.694Z,3.92
2023-04-22T15:30:05.975Z,3.90
2023-04-22T15:32:33.156Z,4.07
2023-04-22T15:35:00.914Z,3.75
2023-04-22T15:37:28.177Z,3.80
2023-04-22T15:40:01.610Z,3.30
2023-04-22T15:42:28.795Z,3.50
2023-04-22T15:44:56.281Z,3.30
2023-04-22T15:47:24.289Z,3.80
2023-04-22T15:49:51.512Z,4.57
2023-04-22T15:52:19.539Z,3.83
2023-04-22T15:54:46.813Z,3.53
2023-04-22T15:57:13.947Z,3.60
2023-04-22T15:59:41.353Z,3.40
2023-04-22T16:02:10.003Z,3.28
2023-04-22T16:04:37.436Z,3.47
2023-04-22T16:07:05.917Z,3.40
2023-04-22T16:09:33.112Z,3.70
2023-04-22T16:12:00.276Z,3.70
2023-04-22T16:14:27.490Z,4.07
2023-04-22T16:16:54.703Z,3.72
2023-04-22T16:19:21.916Z,3.72
2023-04-22T16:21:49.104Z,4.13
2023-04-22T16:24:16.303Z,4.80
2023-04-22T16:26:43.540Z,4.30
2023-04-22T16:29:10.686Z,4.13
2023-04-22T16:31:38.746Z,4.53
2023-04-22T16:34:06.001Z,4.00
2023-04-22T16:36:33.165Z,4.18
2023-04-22T16:39:00.650Z,4.45
2023-04-22T16:41:28.024Z,4.20
2023-04-22T16:43:55.278Z,4.15
2023-04-22T16:46:22.561Z,4.25
2023-04-22T16:48:49.764Z,4.38
2023-04-22T16:51:16.927Z,4.45
2023-04-22T16:53:44.060Z,5.00
2023-04-22T16:56:11.417Z,5.00
2023-04-22T16:58:38.646Z,5.00
2023-04-22T17:01:05.977Z,4.78
2023-04-22T17:03:33.308Z,5.22
2023-04-22T17:06:00.518Z,5.07
2023-04-22T17:08:27.691Z,5.25
2023-04-22T17:10:54.903Z,5.43
2023-04-22T17:13:22.026Z,5.10
2023-04-22T17:15:49.250Z,4.93
2023-04-22T17:18:16.626Z,4.65
2023-04-22T17:20:43.867Z,4.43
2023-04-22T17:23:11.186Z,4.10
2023-04-22T17:25:38.384Z,3.72
2023-04-22T17:28:08.886Z,3.55
2023-04-22T17:30:36.167Z,3.30
2023-04-22T17:33:03.379Z,3.20
2023-04-22T17:35:30.581Z,2.80
2023-04-22T17:37:57.905Z,3.03
2023-04-22T17:40:25.207Z,3.00
2023-04-22T17:42:52.401Z,3.00
2023-04-22T17:45:19.584Z,2.80
2023-04-22T17:47:48.566Z,2.60
2023-04-22T17:50:15.882Z,3.00
2023-04-22T17:52:43.019Z,2.80
2023-04-22T17:55:11.067Z,2.70
2023-04-22T17:57:38.231Z,2.80
2023-04-22T18:00:05.601Z,2.97
2023-04-22T18:02:32.811Z,3.00
2023-04-22T18:05:00.033Z,2.60
2023-04-22T18:07:27.188Z,2.87
2023-04-22T18:09:54.439Z,3.20
2023-04-22T18:12:24.144Z,2.97
2023-04-22T18:14:51.306Z,3.23
2023-04-22T18:17:20.165Z,3.10
2023-04-22T18:19:50.895Z,2.90
2023-04-22T18:22:19.309Z,3.10
2023-04-22T18:24:46.707Z,3.20
2023-04-22T18:27:13.930Z,3.00
2023-04-22T18:29:41.311Z,3.17
2023-04-22T18:32:08.873Z,2.90
2023-04-22T18:34:36.138Z,3.07
2023-04-22T18:37:04.429Z,3.30
2023-04-22T18:39:32.006Z,3.20
2023-04-22T18:41:59.186Z,3.43
2023-04-22T18:44:26.750Z,3.37
2023-04-22T18:46:54.818Z,3.57
2023-04-22T18:49:22.053Z,3.20
2023-04-22T18:51:49.279Z,3.10
2023-04-22T18:54:16.585Z,3.40
2023-04-22T18:56:43.766Z,3.43
2023-04-22T18:59:10.966Z,3.97
2023-04-22T19:01:38.219Z,3.37
2023-04-22T19:04:07.332Z,3.43
2023-04-22T19:06:34.671Z,3.30
2023-04-22T19:09:01.873Z,3.47
2023-04-22T19:11:29.020Z,3.50
2023-04-22T19:13:56.183Z,3.93
2023-04-22T19:16:25.679Z,3.60
2023-04-22T19:18:53.550Z,3.40
2023-04-22T19:21:20.829Z,3.60
2023-04-22T19:23:48.096Z,3.50
2023-04-22T19:26:15.294Z,3.80
2023-04-22T19:28:47.088Z,3.80
2023-04-22T19:31:14.684Z,3.80
2023-04-22T19:33:41.936Z,3.53
2023-04-22T19:36:09.099Z,3.37
2023-04-22T19:38:36.297Z,3.70
2023-04-22T19:41:03.632Z,3.70
2023-04-22T19:43:30.821Z,4.03
2023-04-22T19:45:58.352Z,3.90
2023-04-22T19:48:25.832Z,3.87
2023-04-22T19:50:53.031Z,3.60
2023-04-22T19:53:20.725Z,3.50
2023-04-22T19:55:48.045Z,3.50
2023-04-22T19:58:15.574Z,3.50
2023-04-22T20:00:42.917Z,3.63
2023-04-22T20:03:10.610Z,3.50
2023-04-22T20:05:37.910Z,3.70
2023-04-22T20:08:08.131Z,3.47
2023-04-22T20:10:35.452Z,3.70
2023-04-22T20:13:04.449Z,3.60
2023-04-22T20:15:33.206Z,3.73
2023-04-22T20:18:00.775Z,3.47
2023-04-22T20:20:28.183Z,3.30
2023-04-22T20:22:56.903Z,3.73
2023-04-22T20:25:24.954Z,3.40
2023-04-22T20:27:52.724Z,3.40
2023-04-22T20:30:19.937Z,3.70
2023-04-22T20:32:47.132Z,3.50
2023-04-22T20:35:16.419Z,3.53
2023-04-22T20:37:44.070Z,3.60
2023-04-22T20:40:11.675Z,3.47
2023-04-22T20:42:38.840Z,3.40
2023-04-22T20:45:06.395Z,3.40
2023-04-22T20:47:33.792Z,3.50
2023-04-22T20:50:01.238Z,3.73
2023-04-22T20:52:28.446Z,3.67
2023-04-22T20:54:56.521Z,3.40
2023-04-22T20:57:23.769Z,3.67
2023-04-22T20:59:50.965Z,4.10
2023-04-22T21:02:18.783Z,3.40
2023-04-22T21:04:46.077Z,3.23
2023-04-22T21:07:14.229Z,3.30
2023-04-22T21:09:41.681Z,3.43
2023-04-22T21:12:10.788Z,3.30
2023-04-22T21:14:43.611Z,3.17
2023-04-22T21:17:18.022Z,2.87
2023-04-22T21:19:48.045Z,3.10
2023-04-22T21:22:17.757Z,2.93
2023-04-22T21:24:44.998Z,3.30
2023-04-22T21:27:12.275Z,3.07
2023-04-22T21:29:39.680Z,2.97
2023-04-22T21:32:09.600Z,3.10
2023-04-22T21:34:37.767Z,3.20
2023-04-22T21:37:06.140Z,3.07
2023-04-22T21:39:33.540Z,3.30
2023-04-22T21:42:02.447Z,2.67
2023-04-22T21:44:29.671Z,3.13
2023-04-22T21:46:56.796Z,3.20
2023-04-22T21:49:23.995Z,2.63
2023-04-22T21:51:51.275Z,2.90
2023-04-22T21:54:18.604Z,2.87
2023-04-22T21:56:45.803Z,2.87
2023-04-22T21:59:12.935Z,2.60
2023-04-22T22:01:40.224Z,2.50
2023-04-22T22:04:07.616Z,2.57
2023-04-22T22:06:34.995Z,2.60
2023-04-22T22:09:02.364Z,2.63
2023-04-22T22:11:31.384Z,2.70
2023-04-22T22:13:58.962Z,2.47
2023-04-22T22:16:26.261Z,2.20
2023-04-22T22:18:53.566Z,2.50
2023-04-22T22:21:20.853Z,2.80
2023-04-22T22:23:48.042Z,2.43
2023-04-22T22:26:15.197Z,2.60
2023-04-22T22:28:42.331Z,2.20
2023-04-22T22:31:09.487Z,2.50
2023-04-22T22:33:36.638Z,2.60
2023-04-22T22:36:03.809Z,2.53
2023-04-22T22:38:31.001Z,2.10
2023-04-22T22:40:58.190Z,2.40
2023-04-22T22:43:25.597Z,2.37
2023-04-22T22:45:52.829Z,2.33
2023-04-22T22:48:20.054Z,2.30
2023-04-22T22:50:47.242Z,2.40
2023-04-22T22:53:14.396Z,2.20
2023-04-22T22:55:41.555Z,2.43
2023-04-22T22:58:08.741Z,2.40
2023-04-22T23:00:35.910Z,2.30
2023-04-22T23:03:03.643Z,2.40
2023-04-22T23:05:31.298Z,2.33
2023-04-22T23:07:58.570Z,2.10
2023-04-22T23:10:25.888Z,2.30
2023-04-22T23:12:53.131Z,2.30
2023-04-22T23:15:20.380Z,2.30
2023-04-22T23:17:47.665Z,2.60
2023-04-22T23:20:14.991Z,2.30
2023-04-22T23:22:42.476Z,2.33
2023-04-22T23:25:10.038Z,2.40
2023-04-22T23:27:37.225Z,2.30
2023-04-22T23:30:04.955Z,2.37
2023-04-22T23:32:33.467Z,2.30
2023-04-22T23:35:01.808Z,2.30
2023-04-22T23:37:29.583Z,2.60
2023-04-22T23:39:56.984Z,2.60
2023-04-22T23:42:24.191Z,2.40
2023-04-22T23:44:51.339Z,2.30
2023-04-22T23:47:18.577Z,2.60
2023-04-22T23:49:46.240Z,2.40
2023-04-22T23:52:14.036Z,2.50
2023-04-22T23:54:41.940Z,2.40
2023-04-22T23:57:09.462Z,2.40
2023-04-22T23:59:36.865Z,2.30
